createdAt,value
2019-03-27T00:01:11.162Z,18.70
2019-03-27T00:03:41.417Z,18.70
2019-03-27T00:06:11.764Z,18.60
2019-03-27T00:08:41.946Z,18.60
2019-03-27T00:11:12.143Z,18.70
2019-03-27T00:13:42.315Z,18.60
2019-03-27T00:16:12.500Z,18.60
2019-03-27T00:18:42.688Z,18.60
2019-03-27T00:21:12.862Z,18.60
2019-03-27T00:23:43.051Z,18.50
2019-03-27T00:26:13.240Z,18.60
2019-03-27T00:28:43.464Z,18.60
2019-03-27T00:31:13.646Z,18.60
2019-03-27T00:33:43.823Z,18.70
2019-03-27T00:36:14.010Z,18.60
2019-03-27T00:38:44.188Z,18.60
2019-03-27T00:41:14.390Z,18.60
2019-03-27T00:43:45.643Z,18.40
2019-03-27T00:46:15.828Z,18.40
2019-03-27T00:48:46.031Z,18.20
2019-03-27T00:51:16.212Z,18.10
2019-03-27T00:53:46.388Z,18.30
2019-03-27T00:56:17.641Z,18.50
2019-03-27T00:58:47.814Z,18.60
2019-03-27T01:01:18.155Z,18.60
2019-03-27T01:03:48.379Z,18.60
2019-03-27T01:06:18.578Z,18.60
2019-03-27T01:08:48.767Z,18.60
2019-03-27T01:11:18.951Z,18.60
2019-03-27T01:13:49.137Z,18.60
2019-03-27T01:16:19.390Z,18.60
2019-03-27T01:18:49.618Z,18.60
2019-03-27T01:21:19.798Z,18.50
2019-03-27T01:23:49.974Z,18.50
2019-03-27T01:26:20.154Z,18.50
2019-03-27T01:28:50.347Z,18.50
2019-03-27T01:31:20.601Z,18.50
2019-03-27T01:33:50.791Z,18.50
2019-03-27T01:36:21.011Z,18.40
2019-03-27T01:38:51.195Z,18.40
2019-03-27T01:41:21.543Z,18.50
2019-03-27T01:43:51.726Z,18.50
2019-03-27T01:46:21.914Z,18.50
2019-03-27T01:48:52.090Z,18.30
2019-03-27T01:51:22.279Z,18.30
2019-03-27T01:53:52.464Z,18.40
2019-03-27T01:56:22.645Z,18.40
2019-03-27T01:58:52.814Z,18.40
2019-03-27T02:01:23.007Z,18.40
2019-03-27T02:03:53.255Z,18.40
2019-03-27T02:06:23.438Z,18.30
2019-03-27T02:08:53.618Z,18.30
2019-03-27T02:11:23.813Z,18.30
2019-03-27T02:13:53.985Z,18.30
2019-03-27T02:16:24.177Z,18.20
2019-03-27T02:18:54.355Z,18.30
2019-03-27T02:21:24.935Z,18.20
2019-03-27T02:23:55.122Z,18.20
2019-03-27T02:26:25.302Z,18.20
2019-03-27T02:28:55.492Z,18.20
2019-03-27T02:31:25.759Z,18.20
2019-03-27T02:33:55.931Z,18.10
2019-03-27T02:36:27.186Z,18.20
2019-03-27T02:38:57.480Z,18.10
2019-03-27T02:41:27.664Z,18.20
2019-03-27T02:43:58.920Z,18.10
2019-03-27T02:46:29.126Z,18.10
2019-03-27T02:48:59.301Z,18.00
2019-03-27T02:51:30.456Z,18.00
2019-03-27T02:54:01.704Z,18.00
2019-03-27T02:56:31.911Z,18.00
2019-03-27T02:59:02.077Z,18.00
2019-03-27T03:01:32.348Z,17.90
2019-03-27T03:04:02.591Z,17.90
2019-03-27T03:06:32.770Z,17.90
2019-03-27T03:09:04.620Z,18.00
2019-03-27T03:11:34.888Z,18.00
2019-03-27T03:14:05.144Z,17.90
2019-03-27T03:16:42.777Z,17.90
2019-03-27T03:19:07.212Z,18.00
2019-03-27T03:21:37.416Z,18.00
2019-03-27T03:24:07.664Z,18.00
2019-03-27T03:26:37.847Z,18.00
2019-03-27T03:29:08.040Z,18.00
2019-03-27T03:31:38.257Z,18.00
2019-03-27T03:34:08.472Z,17.90
2019-03-27T03:36:38.727Z,17.80
2019-03-27T03:39:09.354Z,17.90
2019-03-27T03:41:39.604Z,17.90
2019-03-27T03:44:09.775Z,18.00
2019-03-27T03:46:40.075Z,18.00
2019-03-27T03:49:10.389Z,17.90
2019-03-27T03:51:40.683Z,17.90
2019-03-27T03:54:11.116Z,17.90
2019-03-27T03:56:42.361Z,18.00
2019-03-27T03:59:14.859Z,17.90
2019-03-27T04:01:46.038Z,18.00
2019-03-27T04:04:17.223Z,18.00
2019-03-27T04:06:47.420Z,18.00
2019-03-27T04:09:18.679Z,17.90
2019-03-27T04:11:48.870Z,17.90
2019-03-27T04:14:20.145Z,17.90
2019-03-27T04:16:50.389Z,17.90
2019-03-27T04:19:20.557Z,18.00
2019-03-27T04:21:50.766Z,18.00
2019-03-27T04:24:20.952Z,17.90
2019-03-27T04:26:51.164Z,17.90
2019-03-27T04:29:21.335Z,18.00
2019-03-27T04:31:51.630Z,17.90
2019-03-27T04:34:21.803Z,18.00
2019-03-27T04:36:51.991Z,18.00
2019-03-27T04:39:22.166Z,18.00
2019-03-27T04:41:52.351Z,18.00
2019-03-27T04:44:22.531Z,18.00
2019-03-27T04:46:53.022Z,18.00
2019-03-27T04:49:23.293Z,18.00
2019-03-27T04:51:53.578Z,17.70
2019-03-27T04:54:26.845Z,17.80
2019-03-27T04:56:55.639Z,17.90
2019-03-27T04:59:25.819Z,18.00
2019-03-27T05:01:56.013Z,18.00
2019-03-27T05:04:26.687Z,18.00
2019-03-27T05:06:56.879Z,18.00
2019-03-27T05:09:27.072Z,18.10
2019-03-27T05:11:57.255Z,18.00
2019-03-27T05:14:27.551Z,18.00
2019-03-27T05:16:58.150Z,18.00
2019-03-27T05:19:28.334Z,18.00
2019-03-27T05:22:17.485Z,18.10
2019-03-27T05:24:47.670Z,18.10
2019-03-27T05:27:17.850Z,18.10
2019-03-27T05:29:48.030Z,18.10
2019-03-27T05:32:18.218Z,18.10
2019-03-27T05:35:03.935Z,18.20
2019-03-27T05:37:34.118Z,18.20
2019-03-27T05:40:07.127Z,18.20
2019-03-27T05:42:37.487Z,18.00
2019-03-27T05:45:08.115Z,17.90
2019-03-27T05:47:38.303Z,17.90
2019-03-27T05:50:09.226Z,18.00
2019-03-27T05:52:39.586Z,18.10
2019-03-27T05:55:09.921Z,18.10
2019-03-27T05:57:41.070Z,18.10
2019-03-27T06:00:12.762Z,18.20
2019-03-27T06:02:42.954Z,18.20
2019-03-27T06:05:13.212Z,18.30
2019-03-27T06:07:43.406Z,18.30
2019-03-27T06:10:16.246Z,18.30
2019-03-27T06:12:45.635Z,18.30
2019-03-27T06:15:15.903Z,18.30
2019-03-27T06:17:46.083Z,18.40
2019-03-27T06:20:16.432Z,18.40
2019-03-27T06:22:46.611Z,18.40
2019-03-27T06:25:16.791Z,18.10
2019-03-27T06:27:47.947Z,18.20
2019-03-27T06:30:18.316Z,18.30
2019-03-27T06:32:48.509Z,18.40
2019-03-27T06:35:20.148Z,18.40
2019-03-27T06:37:51.807Z,18.40
2019-03-27T06:40:21.994Z,18.40
2019-03-27T06:42:52.182Z,18.50
2019-03-27T06:45:22.358Z,18.60
2019-03-27T06:47:52.551Z,18.60
2019-03-27T06:50:22.726Z,18.50
2019-03-27T06:52:52.911Z,18.50
2019-03-27T06:55:23.171Z,18.50
2019-03-27T06:57:53.397Z,18.50
2019-03-27T07:00:34.676Z,18.50
2019-03-27T07:03:05.468Z,18.50
2019-03-27T07:05:35.926Z,18.30
2019-03-27T07:08:07.172Z,18.40
2019-03-27T07:10:37.450Z,18.50
2019-03-27T07:13:09.250Z,18.50
2019-03-27T07:15:39.426Z,18.50
2019-03-27T07:18:09.650Z,18.50
2019-03-27T07:20:41.269Z,18.40
2019-03-27T07:23:11.704Z,18.40
2019-03-27T07:25:42.848Z,18.40
2019-03-27T07:28:13.043Z,18.50
2019-03-27T07:30:43.239Z,18.60
2019-03-27T07:33:13.565Z,18.60
2019-03-27T07:35:43.748Z,18.60
2019-03-27T07:38:13.942Z,18.50
2019-03-27T07:40:45.266Z,18.70
2019-03-27T07:43:15.461Z,18.80
2019-03-27T07:45:48.130Z,18.80
2019-03-27T07:48:18.716Z,18.70
2019-03-27T07:50:48.897Z,18.70
2019-03-27T07:53:22.277Z,18.50
2019-03-27T07:55:51.261Z,18.50
2019-03-27T07:58:21.511Z,18.60
2019-03-27T08:00:57.869Z,19.00
2019-03-27T08:03:33.678Z,19.80
2019-03-27T08:06:05.483Z,19.70
2019-03-27T08:08:35.678Z,19.90
2019-03-27T08:11:05.945Z,20.00
2019-03-27T08:13:36.126Z,20.10
2019-03-27T08:16:06.319Z,20.20
2019-03-27T08:18:36.591Z,20.20
2019-03-27T08:21:06.999Z,20.20
2019-03-27T08:23:37.187Z,20.20
2019-03-27T08:26:07.371Z,20.20
2019-03-27T08:28:37.559Z,20.30
2019-03-27T08:31:07.734Z,20.30
2019-03-27T08:33:38.003Z,20.30
2019-03-27T08:36:08.179Z,20.40
2019-03-27T08:38:38.367Z,20.60
2019-03-27T08:41:08.535Z,20.70
2019-03-27T08:43:38.811Z,20.90
2019-03-27T08:46:09.126Z,20.90
2019-03-27T08:48:39.476Z,20.80
2019-03-27T08:51:09.870Z,20.60
2019-03-27T08:53:40.071Z,20.70
2019-03-27T08:56:10.941Z,20.80
2019-03-27T08:58:41.214Z,20.80
2019-03-27T09:01:11.390Z,20.90
2019-03-27T09:03:41.610Z,21.00
2019-03-27T09:06:11.797Z,21.00
2019-03-27T09:08:42.175Z,21.20
2019-03-27T09:11:12.368Z,21.30
2019-03-27T09:13:42.560Z,21.30
2019-03-27T09:16:12.809Z,21.20
2019-03-27T09:18:44.036Z,21.20
2019-03-27T09:21:14.207Z,21.20
2019-03-27T09:23:45.977Z,21.30
2019-03-27T09:26:16.415Z,21.40
2019-03-27T09:28:46.603Z,21.50
2019-03-27T09:31:16.782Z,21.40
2019-03-27T09:36:38.419Z,21.50
2019-03-27T09:39:10.655Z,21.50
2019-03-27T09:41:40.914Z,21.30
2019-03-27T09:44:11.105Z,21.20
2019-03-27T09:46:41.279Z,21.20
2019-03-27T09:49:11.532Z,21.20
2019-03-27T09:51:41.796Z,21.20
2019-03-27T09:54:12.083Z,21.30
2019-03-27T09:56:44.656Z,21.20
2019-03-27T09:59:14.838Z,21.20
2019-03-27T10:01:45.020Z,21.10
2019-03-27T10:04:15.323Z,21.20
2019-03-27T10:06:45.504Z,21.10
2019-03-27T10:09:15.702Z,21.10
2019-03-27T10:11:45.951Z,20.40
2019-03-27T10:14:16.211Z,20.50
2019-03-27T10:16:46.387Z,20.70
2019-03-27T10:19:16.583Z,20.80
2019-03-27T10:21:46.847Z,20.90
2019-03-27T10:24:17.108Z,20.90
2019-03-27T10:26:47.287Z,20.90
2019-03-27T10:29:17.479Z,20.80
2019-03-27T10:31:47.737Z,20.80
2019-03-27T10:34:17.931Z,20.90
2019-03-27T10:36:48.100Z,20.90
2019-03-27T10:39:18.326Z,20.80
2019-03-27T10:41:48.582Z,20.80
2019-03-27T10:44:18.974Z,20.80
2019-03-27T10:46:49.159Z,20.90
2019-03-27T10:49:19.426Z,20.90
2019-03-27T10:51:49.611Z,21.00
2019-03-27T10:54:19.917Z,20.90
2019-03-27T10:56:50.090Z,21.00
2019-03-27T10:59:20.272Z,21.10
2019-03-27T11:01:50.447Z,21.10
2019-03-27T11:04:20.653Z,21.10
2019-03-27T11:06:54.883Z,21.20
2019-03-27T11:09:25.140Z,21.20
2019-03-27T11:11:55.319Z,21.20
2019-03-27T11:14:37.264Z,21.20
2019-03-27T11:16:57.386Z,21.20
2019-03-27T11:19:27.663Z,21.20
2019-03-27T11:21:57.846Z,21.20
2019-03-27T11:24:28.119Z,21.20
2019-03-27T11:26:58.295Z,21.20
2019-03-27T11:29:28.490Z,21.30
2019-03-27T11:31:58.753Z,21.30
2019-03-27T11:34:29.012Z,21.40
2019-03-27T11:36:59.287Z,21.40
2019-03-27T11:39:31.183Z,21.40
2019-03-27T11:42:01.399Z,21.40
2019-03-27T11:44:31.830Z,21.30
2019-03-27T11:47:02.023Z,21.30
2019-03-27T11:49:32.212Z,21.30
2019-03-27T11:52:02.391Z,21.40
2019-03-27T11:54:32.583Z,21.40
2019-03-27T11:57:02.927Z,21.30
2019-03-27T11:59:33.330Z,21.20
2019-03-27T12:02:03.686Z,21.10
2019-03-27T12:04:33.872Z,21.00
2019-03-27T12:07:05.023Z,21.10
2019-03-27T12:09:35.218Z,21.20
2019-03-27T12:12:05.554Z,21.20
2019-03-27T12:14:35.876Z,21.20
2019-03-27T12:17:07.030Z,21.10
2019-03-27T12:19:37.949Z,21.00
2019-03-27T12:22:08.384Z,21.00
2019-03-27T12:24:38.577Z,21.00
2019-03-27T12:27:08.902Z,20.90
2019-03-27T12:29:39.092Z,21.00
2019-03-27T12:32:09.430Z,21.10
2019-03-27T12:34:40.686Z,21.10
2019-03-27T12:37:10.862Z,21.10
2019-03-27T12:39:41.248Z,21.00
2019-03-27T12:42:11.490Z,20.80
2019-03-27T12:44:41.873Z,20.90
2019-03-27T12:47:12.123Z,20.90
2019-03-27T12:49:42.391Z,20.90
2019-03-27T12:52:12.566Z,20.80
2019-03-27T12:54:42.751Z,21.00
2019-03-27T12:57:12.986Z,21.00
2019-03-27T12:59:43.243Z,21.00
2019-03-27T13:02:13.583Z,21.10
2019-03-27T13:04:43.799Z,21.10
2019-03-27T13:07:14.067Z,21.00
2019-03-27T13:09:44.267Z,21.00
2019-03-27T13:12:14.527Z,21.00
2019-03-27T13:14:44.803Z,21.00
2019-03-27T13:17:14.981Z,20.90
2019-03-27T13:19:45.177Z,20.70
2019-03-27T13:22:15.337Z,20.90
2019-03-27T13:24:45.567Z,20.90
2019-03-27T13:27:16.760Z,21.00
2019-03-27T13:29:46.946Z,21.00
2019-03-27T13:32:17.141Z,21.00
2019-03-27T13:34:47.327Z,21.00
2019-03-27T13:37:17.507Z,21.00
2019-03-27T13:39:47.770Z,21.10
2019-03-27T13:42:18.014Z,21.00
2019-03-27T13:44:48.226Z,21.10
2019-03-27T13:47:18.396Z,21.20
2019-03-27T13:49:48.587Z,21.10
2019-03-27T13:52:18.771Z,21.10
2019-03-27T13:55:12.291Z,21.10
2019-03-27T13:57:43.479Z,21.10
2019-03-27T14:00:15.970Z,21.00
2019-03-27T14:02:46.146Z,20.90
2019-03-27T14:05:16.624Z,20.90
2019-03-27T14:07:46.987Z,20.90
2019-03-27T14:10:17.714Z,20.90
2019-03-27T14:12:48.027Z,20.80
2019-03-27T14:15:19.469Z,20.80
2019-03-27T14:17:49.654Z,20.90
2019-03-27T14:20:20.699Z,21.00
2019-03-27T14:22:50.899Z,21.10
2019-03-27T14:25:22.220Z,21.10
2019-03-27T14:27:52.595Z,21.10
2019-03-27T14:30:49.442Z,21.10
2019-03-27T14:33:19.734Z,20.90
2019-03-27T14:35:49.931Z,20.80
2019-03-27T14:38:20.513Z,21.00
2019-03-27T14:40:52.338Z,21.10
2019-03-27T14:43:22.746Z,21.00
2019-03-27T14:45:53.189Z,21.10
2019-03-27T14:48:23.350Z,21.00
2019-03-27T14:50:54.782Z,20.90
2019-03-27T14:53:24.983Z,20.80
2019-03-27T14:55:55.255Z,20.50
2019-03-27T14:58:25.436Z,20.60
2019-03-27T15:00:55.642Z,20.70
2019-03-27T15:03:25.819Z,20.70
2019-03-27T15:05:56.043Z,20.80
2019-03-27T15:08:34.169Z,20.90
2019-03-27T15:11:04.427Z,20.90
2019-03-27T15:13:34.641Z,21.00
2019-03-27T15:16:05.002Z,21.10
2019-03-27T15:18:35.182Z,20.90
2019-03-27T15:21:05.549Z,21.00
2019-03-27T15:23:35.716Z,21.00
2019-03-27T15:26:06.339Z,21.00
2019-03-27T15:28:36.523Z,20.80
2019-03-27T15:31:19.482Z,20.90
2019-03-27T15:33:38.595Z,20.90
2019-03-27T15:36:08.783Z,21.00
2019-03-27T15:38:38.963Z,21.10
2019-03-27T15:41:09.175Z,21.00
2019-03-27T15:43:39.346Z,20.90
2019-03-27T15:46:09.539Z,20.90
2019-03-27T15:48:39.743Z,21.10
2019-03-27T15:51:09.963Z,21.10
2019-03-27T15:53:40.142Z,21.00
2019-03-27T15:56:10.336Z,20.90
2019-03-27T15:58:40.518Z,20.90
2019-03-27T16:01:11.082Z,20.80
2019-03-27T16:03:41.347Z,20.90
2019-03-27T16:06:11.544Z,21.00
2019-03-27T16:08:41.816Z,21.00
2019-03-27T16:11:12.207Z,21.00
2019-03-27T16:13:42.407Z,21.00
2019-03-27T16:16:12.742Z,20.80
2019-03-27T16:18:43.117Z,20.90
2019-03-27T16:21:13.315Z,20.90
2019-03-27T16:23:43.495Z,20.70
2019-03-27T16:26:13.677Z,20.70
2019-03-27T16:28:43.863Z,20.80
2019-03-27T16:31:14.127Z,20.80
2019-03-27T16:33:44.390Z,20.90
2019-03-27T16:36:14.574Z,20.90
2019-03-27T16:38:44.759Z,20.90
2019-03-27T16:41:16.023Z,20.80
2019-03-27T16:43:46.256Z,20.80
2019-03-27T16:46:16.526Z,20.80
2019-03-27T16:48:46.702Z,20.80
2019-03-27T16:51:17.403Z,20.70
2019-03-27T16:53:47.631Z,20.70
2019-03-27T16:56:17.851Z,20.80
2019-03-27T16:58:48.034Z,20.80
2019-03-27T17:01:18.288Z,20.70
2019-03-27T17:03:48.466Z,20.70
2019-03-27T17:06:18.738Z,20.70
2019-03-27T17:08:49.063Z,20.70
2019-03-27T17:11:19.255Z,20.70
2019-03-27T17:13:49.454Z,20.80
2019-03-27T17:16:19.626Z,20.70
2019-03-27T17:18:49.848Z,20.70
2019-03-27T17:21:20.147Z,20.70
2019-03-27T17:23:50.335Z,20.70
2019-03-27T17:26:20.607Z,20.70
2019-03-27T17:28:50.979Z,20.40
2019-03-27T17:31:21.249Z,20.40
2019-03-27T17:33:51.434Z,20.50
2019-03-27T17:36:21.636Z,20.70
2019-03-27T17:38:51.827Z,20.70
2019-03-27T17:41:22.028Z,20.60
2019-03-27T17:43:52.223Z,20.60
2019-03-27T17:46:22.434Z,20.50
2019-03-27T17:48:52.635Z,20.50
2019-03-27T17:51:22.810Z,20.60
2019-03-27T17:53:53.006Z,20.50
2019-03-27T17:56:23.374Z,20.40
2019-03-27T17:58:53.559Z,20.60
2019-03-27T18:01:23.831Z,20.60
2019-03-27T18:03:54.064Z,20.60
2019-03-27T18:06:24.255Z,20.60
2019-03-27T18:08:54.458Z,20.60
2019-03-27T18:11:24.646Z,20.60
2019-03-27T18:13:54.907Z,20.60
2019-03-27T18:16:25.114Z,20.60
2019-03-27T18:18:55.304Z,20.60
2019-03-27T18:21:25.495Z,20.50
2019-03-27T18:23:55.754Z,20.40
2019-03-27T18:26:25.924Z,20.50
2019-03-27T18:28:56.137Z,20.50
2019-03-27T18:31:36.223Z,20.50
2019-03-27T18:34:06.623Z,20.30
2019-03-27T18:36:45.779Z,20.40
2019-03-27T18:39:15.954Z,20.50
2019-03-27T18:41:46.135Z,20.50
2019-03-27T18:44:17.412Z,20.30
2019-03-27T18:46:54.757Z,20.50
2019-03-27T18:52:24.014Z,20.50
2019-03-27T18:54:54.199Z,20.50
2019-03-27T18:57:24.426Z,20.40
2019-03-27T18:59:54.647Z,20.50
2019-03-27T19:02:24.920Z,20.50
2019-03-27T19:04:55.093Z,20.60
2019-03-27T19:07:25.283Z,20.60
2019-03-27T19:09:55.547Z,20.50
2019-03-27T19:12:27.182Z,20.30
2019-03-27T19:14:57.605Z,20.40
2019-03-27T19:17:27.796Z,20.50
2019-03-27T19:19:57.967Z,20.50
2019-03-27T19:22:28.159Z,20.50
2019-03-27T19:24:58.344Z,20.60
2019-03-27T19:27:28.535Z,20.60
2019-03-27T19:29:58.710Z,20.70
2019-03-27T19:32:28.982Z,20.60
2019-03-27T19:34:59.290Z,20.60
2019-03-27T19:37:29.474Z,20.60
2019-03-27T19:40:01.094Z,20.60
2019-03-27T19:42:31.729Z,20.50
2019-03-27T19:45:02.331Z,20.60
2019-03-27T19:47:33.464Z,20.50
2019-03-27T19:50:04.363Z,20.50
2019-03-27T19:52:34.558Z,20.50
2019-03-27T19:55:05.074Z,20.50
2019-03-27T19:57:35.403Z,20.50
2019-03-27T20:00:07.659Z,20.50
2019-03-27T20:02:38.347Z,20.50
2019-03-27T20:05:09.024Z,20.50
2019-03-27T20:07:39.215Z,20.40
2019-03-27T20:10:10.686Z,20.40
2019-03-27T20:12:40.937Z,20.40
2019-03-27T20:15:12.773Z,20.40
2019-03-27T20:17:43.539Z,20.40
2019-03-27T20:20:14.309Z,20.40
2019-03-27T20:22:44.588Z,20.50
2019-03-27T20:25:15.148Z,20.50
2019-03-27T20:27:45.506Z,20.50
2019-03-27T20:30:16.890Z,20.40
2019-03-27T20:32:47.087Z,20.40
2019-03-27T20:35:17.368Z,20.40
2019-03-27T20:37:47.676Z,20.40
2019-03-27T20:40:19.030Z,20.40
2019-03-27T20:42:52.071Z,20.40
2019-03-27T20:45:21.198Z,20.40
2019-03-27T20:47:51.390Z,20.40
2019-03-27T20:50:21.902Z,20.40
2019-03-27T20:52:52.099Z,20.40
2019-03-27T20:55:30.232Z,20.40
2019-03-27T20:57:54.175Z,20.30
2019-03-27T21:00:24.363Z,20.30
2019-03-27T21:02:54.633Z,20.30
2019-03-27T21:05:24.816Z,20.30
2019-03-27T21:07:55.159Z,20.30
2019-03-27T21:10:25.415Z,20.30
2019-03-27T21:12:55.611Z,20.30
2019-03-27T21:15:25.797Z,20.30
2019-03-27T21:17:55.980Z,20.30
2019-03-27T21:20:26.212Z,20.30
2019-03-27T21:22:56.406Z,20.30
2019-03-27T21:25:26.631Z,20.30
2019-03-27T21:27:57.004Z,20.20
2019-03-27T21:30:27.186Z,20.30
2019-03-27T21:32:57.383Z,20.20
2019-03-27T21:35:27.597Z,20.20
2019-03-27T21:37:57.774Z,20.20
2019-03-27T21:40:27.955Z,20.10
2019-03-27T21:42:58.306Z,19.90
2019-03-27T21:45:28.486Z,20.00
2019-03-27T21:47:58.667Z,20.20
2019-03-27T21:50:28.859Z,20.20
2019-03-27T21:53:01.125Z,20.30
2019-03-27T21:55:42.165Z,20.30
2019-03-27T21:58:03.650Z,20.30
2019-03-27T22:00:39.308Z,20.30
2019-03-27T22:03:10.074Z,20.30
2019-03-27T22:05:40.318Z,20.20
2019-03-27T22:08:10.531Z,20.30
2019-03-27T22:10:40.742Z,20.30
2019-03-27T22:13:10.954Z,20.30
2019-03-27T22:15:41.379Z,20.30
2019-03-27T22:18:11.566Z,20.30
2019-03-27T22:20:41.739Z,20.30
2019-03-27T22:23:11.940Z,20.30
2019-03-27T22:25:42.129Z,20.30
2019-03-27T22:28:12.328Z,20.30
2019-03-27T22:30:46.123Z,20.30
2019-03-27T22:33:16.356Z,20.30
2019-03-27T22:35:46.534Z,20.30
2019-03-27T22:38:16.903Z,20.30
2019-03-27T22:40:48.158Z,20.20
2019-03-27T22:43:18.355Z,20.00
2019-03-27T22:45:48.548Z,20.00
2019-03-27T22:48:18.750Z,19.90
2019-03-27T22:50:48.932Z,19.90
2019-03-27T22:53:19.124Z,20.00
2019-03-27T22:55:50.526Z,20.10
2019-03-27T22:58:20.870Z,20.10
2019-03-27T23:00:54.507Z,20.10
2019-03-27T23:03:24.946Z,20.10
2019-03-27T23:05:55.195Z,20.20
2019-03-27T23:08:25.474Z,20.10
2019-03-27T23:10:55.654Z,20.20
2019-03-27T23:13:25.831Z,20.20
2019-03-27T23:15:56.160Z,20.10
2019-03-27T23:18:26.378Z,20.10
2019-03-27T23:20:56.655Z,20.10
2019-03-27T23:23:26.844Z,20.10
2019-03-27T23:26:02.888Z,20.10
2019-03-27T23:28:29.083Z,20.10
2019-03-27T23:30:59.258Z,20.10
2019-03-27T23:33:30.523Z,20.10
2019-03-27T23:36:00.706Z,20.10
2019-03-27T23:38:30.899Z,20.10
2019-03-27T23:41:01.084Z,20.10
2019-03-27T23:43:31.283Z,20.10
2019-03-27T23:46:01.461Z,20.10
2019-03-27T23:48:31.651Z,20.10
2019-03-27T23:51:01.828Z,20.10
2019-03-27T23:53:32.027Z,20.10
2019-03-27T23:56:15.522Z,20.10
2019-03-27T23:58:35.049Z,19.90
